createdAt,value
2023-03-17T00:00:31.845Z,2.47
2023-03-17T00:02:59.792Z,1.73
2023-03-17T00:05:33.203Z,2.40
2023-03-17T00:08:04.502Z,2.70
2023-03-17T00:10:31.739Z,2.08
2023-03-17T00:12:58.696Z,1.60
2023-03-17T00:15:27.202Z,1.90
2023-03-17T00:17:55.825Z,1.83
2023-03-17T00:20:27.382Z,2.00
2023-03-17T00:22:57.573Z,3.05
2023-03-17T00:25:27.200Z,2.63
2023-03-17T00:27:54.910Z,2.00
2023-03-17T00:30:22.876Z,1.63
2023-03-17T00:32:52.195Z,1.98
2023-03-17T00:35:23.161Z,1.83
2023-03-17T00:37:52.333Z,1.33
2023-03-17T00:40:24.142Z,1.70
2023-03-17T00:42:52.251Z,1.85
2023-03-17T00:45:21.219Z,1.40
2023-03-17T00:47:49.050Z,1.88
2023-03-17T00:50:22.076Z,1.95
2023-03-17T00:52:52.126Z,1.45
2023-03-17T00:55:19.672Z,2.25
2023-03-17T00:57:49.589Z,1.92
2023-03-17T01:00:23.769Z,1.40
2023-03-17T01:02:51.254Z,2.10
2023-03-17T01:05:19.324Z,1.52
2023-03-17T01:07:52.654Z,1.63
2023-03-17T01:10:23.957Z,1.67
2023-03-17T01:12:52.190Z,1.60
2023-03-17T01:15:21.660Z,1.77
2023-03-17T01:17:50.635Z,1.98
2023-03-17T01:20:19.720Z,2.35
2023-03-17T01:22:46.457Z,1.55
2023-03-17T01:25:13.913Z,2.45
2023-03-17T01:27:45.354Z,1.75
2023-03-17T01:30:23.178Z,1.80
2023-03-17T01:32:50.320Z,1.70
2023-03-17T01:35:18.581Z,1.77
2023-03-17T01:37:46.438Z,2.10
2023-03-17T01:40:17.291Z,1.92
2023-03-17T01:42:48.029Z,1.52
2023-03-17T01:45:52.140Z,1.92
2023-03-17T01:48:20.446Z,1.15
2023-03-17T01:50:48.358Z,1.38
2023-03-17T01:53:16.380Z,1.90
2023-03-17T01:55:45.495Z,1.35
2023-03-17T01:58:13.036Z,1.95
2023-03-17T02:00:39.891Z,1.50
2023-03-17T02:03:06.542Z,0.98
2023-03-17T02:05:34.599Z,1.48
2023-03-17T02:08:03.090Z,1.58
2023-03-17T02:10:30.638Z,1.88
2023-03-17T02:13:01.206Z,1.13
2023-03-17T02:15:37.096Z,1.83
2023-03-17T02:18:03.871Z,1.52
2023-03-17T02:21:04.307Z,1.52
2023-03-17T02:23:32.329Z,1.65
2023-03-17T02:25:59.354Z,2.08
2023-03-17T02:28:30.750Z,1.88
2023-03-17T02:30:57.929Z,2.00
2023-03-17T02:33:24.623Z,1.33
2023-03-17T02:35:54.413Z,1.48
2023-03-17T02:38:21.837Z,3.10
2023-03-17T02:40:49.974Z,2.10
2023-03-17T02:43:16.835Z,1.48
2023-03-17T02:45:43.494Z,2.03
2023-03-17T02:48:11.946Z,1.83
2023-03-17T02:50:38.695Z,1.30
2023-03-17T02:53:05.380Z,1.38
2023-03-17T02:55:32.005Z,1.48
2023-03-17T02:58:01.986Z,1.35
2023-03-17T03:00:28.890Z,1.45
2023-03-17T03:02:55.882Z,1.85
2023-03-17T03:05:22.590Z,1.40
2023-03-17T03:07:49.210Z,1.63
2023-03-17T03:10:16.422Z,1.77
2023-03-17T03:12:43.070Z,1.13
2023-03-17T03:15:11.881Z,1.30
2023-03-17T03:17:38.578Z,0.98
2023-03-17T03:20:06.253Z,1.08
2023-03-17T03:22:32.898Z,1.10
2023-03-17T03:24:59.650Z,1.40
2023-03-17T03:27:26.617Z,1.63
2023-03-17T03:29:53.249Z,1.65
2023-03-17T03:32:21.231Z,1.25
2023-03-17T03:34:47.880Z,1.20
2023-03-17T03:37:14.644Z,1.27
2023-03-17T03:39:41.405Z,1.70
2023-03-17T03:42:08.685Z,0.98
2023-03-17T03:44:35.410Z,1.63
2023-03-17T03:47:02.763Z,1.13
2023-03-17T03:49:31.416Z,1.48
2023-03-17T03:51:58.050Z,1.50
2023-03-17T03:54:24.770Z,1.95
2023-03-17T03:56:51.498Z,1.88
2023-03-17T03:59:18.561Z,2.15
2023-03-17T04:01:45.635Z,1.42
2023-03-17T04:04:12.268Z,1.33
2023-03-17T04:06:40.383Z,1.15
2023-03-17T07:30:51.960Z,3.28
2023-03-17T07:33:22.228Z,1.60
2023-03-17T07:35:49.654Z,1.63
2023-03-17T07:38:17.918Z,1.40
2023-03-17T07:40:47.658Z,1.90
2023-03-17T07:43:14.599Z,1.52
2023-03-17T07:45:43.069Z,1.23
2023-03-17T07:48:10.610Z,1.40
2023-03-17T07:50:37.698Z,1.98
2023-03-17T07:53:04.949Z,1.48
2023-03-17T07:55:32.795Z,1.83
2023-03-17T07:58:00.104Z,1.55
2023-03-17T08:00:29.084Z,1.40
2023-03-17T08:03:09.503Z,0.57
2023-03-17T08:05:37.604Z,1.45
2023-03-17T08:08:06.862Z,1.00
2023-03-17T08:10:34.106Z,0.80
2023-03-17T08:13:01.179Z,0.85
2023-03-17T08:15:27.978Z,1.10
2023-03-17T08:17:54.642Z,0.80
2023-03-17T08:20:22.627Z,1.02
2023-03-17T08:22:49.295Z,0.80
2023-03-17T08:25:16.139Z,0.68
2023-03-17T08:27:42.898Z,0.73
2023-03-17T08:30:11.203Z,0.45
2023-03-17T08:32:38.003Z,0.65
2023-03-17T08:35:06.365Z,0.70
2023-03-17T08:37:34.514Z,0.88
2023-03-17T08:40:01.368Z,0.90
2023-03-17T08:42:28.161Z,0.73
2023-03-17T08:44:54.811Z,1.10
2023-03-17T08:47:21.890Z,0.88
2023-03-17T08:49:48.837Z,0.70
2023-03-17T08:52:16.214Z,0.80
2023-03-17T08:54:44.208Z,0.80
2023-03-17T08:57:10.864Z,0.63
2023-03-17T08:59:37.715Z,0.75
2023-03-17T09:02:04.972Z,0.82
2023-03-17T09:04:32.540Z,0.60
2023-03-17T09:07:03.873Z,0.65
2023-03-17T09:09:31.216Z,0.90
2023-03-17T09:11:59.258Z,0.55
2023-03-17T09:14:25.984Z,0.77
2023-03-17T09:16:52.925Z,1.73
2023-03-17T09:19:19.595Z,0.60
2023-03-17T09:21:46.929Z,1.20
2023-03-17T09:24:13.679Z,0.60
2023-03-17T09:26:41.527Z,0.55
2023-03-17T09:29:09.954Z,0.63
2023-03-17T09:31:37.373Z,0.65
2023-03-17T09:34:05.125Z,0.50
2023-03-17T09:36:33.159Z,0.45
2023-03-17T09:39:00.925Z,0.30
2023-03-17T09:41:53.925Z,0.60
2023-03-17T09:44:34.365Z,0.47
2023-03-17T09:47:12.280Z,0.45
2023-03-17T09:49:45.444Z,0.40
2023-03-17T09:52:14.785Z,0.52
2023-03-17T09:54:42.611Z,0.77
2023-03-17T09:57:14.409Z,0.60
2023-03-17T09:59:46.880Z,0.60
2023-03-17T10:02:21.332Z,0.57
2023-03-17T10:04:48.781Z,0.70
2023-03-17T10:07:20.348Z,0.40
2023-03-17T10:09:58.142Z,0.40
2023-03-17T10:12:31.660Z,0.50
2023-03-17T10:15:02.719Z,0.60
2023-03-17T10:17:32.624Z,0.47
2023-03-17T10:20:04.638Z,0.45
2023-03-17T10:22:38.020Z,0.70
2023-03-17T10:25:12.786Z,0.43
2023-03-17T10:27:40.989Z,0.47
2023-03-17T10:30:16.100Z,0.30
2023-03-17T10:32:44.185Z,0.40
2023-03-17T10:35:11.823Z,0.45
2023-03-17T10:37:39.311Z,0.70
2023-03-17T10:40:10.422Z,0.40
2023-03-17T10:42:47.711Z,0.65
2023-03-17T10:45:17.829Z,0.50
2023-03-17T10:47:48.261Z,0.38
2023-03-17T10:50:21.441Z,0.55
2023-03-17T10:52:53.045Z,0.65
2023-03-17T10:55:22.425Z,0.52
2023-03-17T10:57:53.588Z,0.88
2023-03-17T11:00:23.177Z,0.50
2023-03-17T11:02:56.264Z,1.20
2023-03-17T11:05:24.800Z,1.15
2023-03-17T11:07:58.650Z,0.40
2023-03-17T11:10:27.385Z,0.60
2023-03-17T11:12:59.035Z,0.60
2023-03-17T11:15:32.650Z,0.70
2023-03-17T11:18:01.472Z,0.60
2023-03-17T11:20:40.021Z,1.13
2023-03-17T11:23:18.865Z,0.57
2023-03-17T11:25:53.496Z,1.30
2023-03-17T11:28:21.746Z,0.40
2023-03-17T11:31:00.151Z,0.50
2023-03-17T11:33:35.423Z,0.50
2023-03-17T11:38:33.433Z,0.47
2023-03-17T11:41:14.035Z,0.40
2023-03-17T11:43:53.060Z,0.60
2023-03-17T11:46:28.243Z,0.50
2023-03-17T11:51:36.064Z,0.52
2023-03-17T11:54:09.709Z,0.25
2023-03-17T11:56:45.442Z,0.43
2023-03-17T11:59:19.672Z,0.50
2023-03-17T12:01:54.794Z,0.50
2023-03-17T12:04:30.564Z,0.30
2023-03-17T12:07:06.453Z,0.40
2023-03-17T12:09:38.037Z,0.40
2023-03-17T12:12:07.990Z,0.75
2023-03-17T12:14:40.328Z,0.80
2023-03-17T12:17:14.659Z,0.40
2023-03-17T12:19:50.578Z,0.52
2023-03-17T12:22:26.190Z,0.43
2023-03-17T12:25:02.855Z,0.40
2023-03-17T12:27:33.016Z,0.50
2023-03-17T12:30:05.259Z,0.50
2023-03-17T12:32:39.699Z,0.50
2023-03-17T12:35:25.371Z,0.57
2023-03-17T12:37:52.812Z,0.65
2023-03-17T12:40:26.701Z,0.55
2023-03-17T12:43:06.263Z,0.70
2023-03-17T12:46:08.692Z,0.50
2023-03-17T12:48:54.284Z,0.63
2023-03-17T12:51:40.112Z,0.50
2023-03-17T12:54:13.289Z,0.57
2023-03-17T12:56:45.333Z,0.50
2023-03-17T12:59:17.370Z,0.60
2023-03-17T13:01:54.703Z,0.57
2023-03-17T13:04:27.168Z,0.47
2023-03-17T13:07:02.491Z,0.80
2023-03-17T13:09:43.100Z,0.98
2023-03-17T13:12:35.749Z,1.00
2023-03-17T13:15:02.786Z,0.75
2023-03-17T13:17:33.550Z,0.70
2023-03-17T13:20:14.324Z,1.15
2023-03-17T13:23:00.425Z,0.60
2023-03-17T13:25:33.438Z,0.50
2023-03-17T13:28:22.632Z,0.77
2023-03-17T13:30:56.966Z,1.15
2023-03-17T13:33:30.655Z,0.85
2023-03-17T13:42:54.144Z,0.75
2023-03-17T13:45:41.621Z,0.60
2023-03-17T13:48:37.277Z,0.90
2023-03-17T13:51:17.600Z,0.75
2023-03-17T13:53:51.270Z,0.60
2023-03-17T13:56:23.629Z,0.77
2023-03-17T13:58:56.157Z,0.80
2023-03-17T14:01:25.134Z,0.70
2023-03-17T14:06:34.537Z,1.17
2023-03-17T14:09:10.040Z,0.80
2023-03-17T14:11:39.024Z,0.85
2023-03-17T14:14:32.079Z,0.70
2023-03-17T14:17:05.366Z,0.70
2023-03-17T14:19:32.704Z,0.85
2023-03-17T14:22:17.988Z,0.70
2023-03-17T14:24:51.442Z,1.67
2023-03-17T14:27:18.209Z,0.90
2023-03-17T14:29:45.796Z,0.75
2023-03-17T14:32:15.978Z,0.82
2023-03-17T14:34:44.292Z,0.77
2023-03-17T14:37:12.829Z,0.82
2023-03-17T14:39:48.907Z,0.93
2023-03-17T14:42:17.983Z,1.02
2023-03-17T14:44:45.066Z,1.15
2023-03-17T14:47:20.036Z,1.85
2023-03-17T14:49:47.930Z,0.88
2023-03-17T14:52:20.564Z,0.82
2023-03-17T14:54:53.827Z,0.75
2023-03-17T14:57:25.617Z,1.00
2023-03-17T14:59:57.721Z,1.10
2023-03-17T15:02:31.140Z,1.23
2023-03-17T15:05:02.996Z,0.88
2023-03-17T15:07:35.778Z,1.00
2023-03-17T15:10:05.968Z,0.90
2023-03-17T15:12:33.640Z,1.20
2023-03-17T15:15:04.010Z,1.10
2023-03-17T15:17:33.580Z,0.70
2023-03-17T15:20:04.936Z,2.05
2023-03-17T15:22:41.668Z,3.53
2023-03-17T15:25:21.396Z,2.42
2023-03-17T15:27:48.532Z,5.15
2023-03-17T15:30:16.986Z,1.50
2023-03-17T15:32:45.234Z,1.05
2023-03-17T15:35:13.996Z,1.00
2023-03-17T15:37:41.725Z,1.30
2023-03-17T15:40:13.576Z,1.50
2023-03-17T15:42:42.983Z,1.40
2023-03-17T15:45:14.962Z,1.48
2023-03-17T15:47:45.641Z,1.38
2023-03-17T15:50:18.518Z,1.45
2023-03-17T15:52:46.180Z,1.42
2023-03-17T15:55:21.161Z,2.55
2023-03-17T15:57:55.145Z,1.35
2023-03-17T16:00:24.714Z,1.55
2023-03-17T16:02:55.785Z,1.38
2023-03-17T16:05:25.346Z,1.15
2023-03-17T16:07:54.671Z,1.00
2023-03-17T16:10:24.420Z,1.48
2023-03-17T16:12:55.296Z,1.17
2023-03-17T16:15:27.795Z,1.00
2023-03-17T16:17:59.313Z,1.50
2023-03-17T16:20:29.962Z,1.40
2023-03-17T16:23:02.213Z,1.10
2023-03-17T16:25:31.810Z,1.05
2023-03-17T16:28:03.038Z,1.40
2023-03-17T16:30:34.070Z,1.42
2023-03-17T16:33:03.798Z,1.75
2023-03-17T16:35:31.561Z,1.20
2023-03-17T16:37:58.571Z,1.30
2023-03-17T16:40:29.095Z,1.50
2023-03-17T16:42:57.136Z,1.10
2023-03-17T16:45:30.166Z,1.77
2023-03-17T16:47:57.483Z,1.23
2023-03-17T16:50:30.145Z,1.48
2023-03-17T16:53:04.211Z,1.70
2023-03-17T16:55:31.723Z,1.92
2023-03-17T16:58:01.230Z,1.60
2023-03-17T17:00:30.688Z,1.65
2023-03-17T17:02:58.666Z,1.50
2023-03-17T17:05:27.393Z,1.73
2023-03-17T17:07:57.493Z,1.95
2023-03-17T17:10:26.643Z,1.30
2023-03-17T17:12:54.491Z,2.25
2023-03-17T17:15:28.109Z,2.00
2023-03-17T17:18:00.102Z,1.80
2023-03-17T17:20:30.939Z,1.90
2023-03-17T17:22:58.857Z,2.30
2023-03-17T17:25:28.979Z,2.10
2023-03-17T17:33:12.394Z,2.45
2023-03-17T17:35:41.745Z,2.40
2023-03-17T17:38:17.710Z,2.05
2023-03-17T17:40:44.472Z,2.47
2023-03-17T17:43:11.254Z,2.33
2023-03-17T17:45:39.046Z,2.70
2023-03-17T17:48:05.896Z,1.98
2023-03-17T17:50:34.209Z,1.63
2023-03-17T17:53:08.465Z,1.63
2023-03-17T17:55:35.349Z,2.05
2023-03-17T17:58:02.131Z,2.08
2023-03-17T18:00:30.198Z,2.03
2023-03-17T18:02:57.008Z,1.60
2023-03-17T18:05:24.014Z,1.63
2023-03-17T18:07:52.046Z,2.25
2023-03-17T18:10:22.604Z,1.80
2023-03-17T18:12:49.667Z,1.98
2023-03-17T18:15:16.876Z,2.85
2023-03-17T18:17:43.877Z,2.53
2023-03-17T18:20:12.380Z,2.05
2023-03-17T18:22:39.841Z,1.80
2023-03-17T18:25:10.090Z,1.83
2023-03-17T18:27:37.444Z,1.35
2023-03-17T18:30:07.287Z,1.48
2023-03-17T18:32:34.849Z,3.08
2023-03-17T18:35:05.244Z,1.85
2023-03-17T18:37:32.524Z,2.70
2023-03-17T18:40:13.439Z,2.72
2023-03-17T18:42:43.445Z,2.22
2023-03-17T18:45:11.609Z,30.55
2023-03-17T18:47:39.027Z,72.20
2023-03-17T18:50:08.318Z,56.17
2023-03-17T18:52:37.196Z,8.55
2023-03-17T18:55:05.226Z,3.55
2023-03-17T18:57:35.061Z,3.42
2023-03-17T19:00:05.047Z,5.55
2023-03-17T19:02:31.698Z,5.07
2023-03-17T19:04:58.554Z,2.28
2023-03-17T19:07:25.555Z,1.58
2023-03-17T19:09:52.894Z,1.58
2023-03-17T19:12:19.577Z,1.27
2023-03-17T19:14:47.215Z,2.33
2023-03-17T19:17:18.590Z,3.00
2023-03-17T19:19:46.494Z,1.13
2023-03-17T19:22:14.063Z,1.63
2023-03-17T19:24:41.161Z,2.40
2023-03-17T19:27:08.017Z,3.72
2023-03-17T19:29:34.707Z,3.13
2023-03-17T19:32:02.319Z,4.20
2023-03-17T19:34:30.532Z,5.95
2023-03-17T19:36:57.217Z,8.82
2023-03-17T19:39:24.110Z,11.48
2023-03-17T19:41:54.897Z,9.93
2023-03-17T19:44:21.722Z,4.85
2023-03-17T19:46:48.446Z,2.92
2023-03-17T19:49:15.782Z,3.47
2023-03-17T19:51:44.091Z,6.18
2023-03-17T19:54:11.687Z,5.60
2023-03-17T19:56:39.211Z,6.38
2023-03-17T19:59:05.947Z,5.95
2023-03-17T20:01:32.735Z,6.93
2023-03-17T20:03:59.610Z,6.65
2023-03-17T20:06:27.177Z,5.68
2023-03-17T20:08:55.181Z,6.60
2023-03-17T20:11:21.833Z,8.73
2023-03-17T20:13:48.491Z,7.30
2023-03-17T20:16:16.476Z,6.65
2023-03-17T20:18:43.167Z,9.75
2023-03-17T20:21:13.046Z,7.28
2023-03-17T20:23:39.709Z,7.70
2023-03-17T20:26:08.356Z,7.78
2023-03-17T20:28:35.620Z,7.57
2023-03-17T20:31:05.650Z,8.32
2023-03-17T20:33:33.411Z,6.55
2023-03-17T20:36:01.810Z,6.47
2023-03-17T20:38:28.782Z,7.88
2023-03-17T20:41:04.442Z,6.78
2023-03-17T20:43:34.159Z,8.27
2023-03-17T20:46:01.357Z,7.20
2023-03-17T20:48:28.468Z,7.03
2023-03-17T20:50:55.177Z,6.80
2023-03-17T20:53:24.589Z,7.47
2023-03-17T20:55:51.280Z,6.95
2023-03-17T20:58:18.406Z,5.00
2023-03-17T21:00:49.190Z,6.10
2023-03-17T21:03:17.770Z,6.68
2023-03-17T21:05:45.706Z,5.90
2023-03-17T21:08:12.435Z,5.60
2023-03-17T21:10:39.268Z,6.47
2023-03-17T21:13:06.876Z,6.35
2023-03-17T21:15:33.603Z,5.93
2023-03-17T21:18:01.895Z,7.40
2023-03-17T21:20:28.557Z,7.55
2023-03-17T21:22:56.547Z,8.70
2023-03-17T21:25:23.434Z,8.20
2023-03-17T21:27:50.834Z,8.35
2023-03-17T21:30:17.863Z,8.07
2023-03-17T21:32:44.573Z,8.13
2023-03-17T21:35:12.790Z,7.70
2023-03-17T21:37:39.483Z,7.97
2023-03-17T21:40:07.361Z,7.18
2023-03-17T21:42:35.117Z,8.57
2023-03-17T21:45:01.928Z,7.72
2023-03-17T21:47:30.200Z,6.57
2023-03-17T21:49:57.934Z,6.72
2023-03-17T21:52:26.134Z,5.80
2023-03-17T21:54:53.502Z,6.30
2023-03-17T21:57:20.333Z,7.55
2023-03-17T21:59:48.019Z,6.85
2023-03-17T22:02:17.544Z,6.55
2023-03-17T22:07:12.138Z,7.35
2023-03-17T22:09:40.241Z,6.40
2023-03-17T22:12:07.827Z,6.18
2023-03-17T22:14:35.626Z,6.55
2023-03-17T22:17:05.311Z,5.25
2023-03-17T22:21:59.126Z,6.65
2023-03-17T22:24:25.907Z,5.35
2023-03-17T22:26:55.552Z,5.70
2023-03-17T22:31:49.000Z,6.10
2023-03-17T22:34:17.356Z,6.65
2023-03-17T22:36:44.044Z,5.60
2023-03-17T22:39:10.876Z,4.75
2023-03-17T22:41:38.472Z,3.97
2023-03-17T22:44:07.125Z,5.28
2023-03-17T22:46:34.213Z,5.78
2023-03-17T22:49:01.212Z,6.35
2023-03-17T22:51:28.414Z,5.13
2023-03-17T22:53:55.622Z,4.60
2023-03-17T22:56:22.272Z,4.00
2023-03-17T22:58:48.928Z,4.65
2023-03-17T23:01:18.451Z,3.90
2023-03-17T23:03:46.262Z,5.10
2023-03-17T23:06:14.464Z,6.80
2023-03-17T23:08:42.884Z,3.65
2023-03-17T23:11:13.633Z,3.33
2023-03-17T23:13:41.590Z,3.75
2023-03-17T23:16:09.130Z,3.53
2023-03-17T23:18:37.296Z,4.68
2023-03-17T23:21:05.234Z,3.13
2023-03-17T23:23:32.074Z,5.10
2023-03-17T23:25:59.549Z,4.40
2023-03-17T23:28:26.518Z,4.60
2023-03-17T23:30:53.989Z,3.25
2023-03-17T23:33:21.566Z,4.35
2023-03-17T23:35:50.461Z,4.03
2023-03-17T23:38:19.384Z,4.55
2023-03-17T23:40:46.676Z,3.72
2023-03-17T23:43:14.362Z,4.00
2023-03-17T23:45:41.707Z,3.40
2023-03-17T23:48:09.113Z,2.17
2023-03-17T23:50:36.448Z,2.42
2023-03-17T23:53:04.414Z,3.10
2023-03-17T23:55:31.470Z,2.20
2023-03-17T23:57:58.119Z,2.95
